石垣島の過去48時間の天気

石垣島 (Ishigaki jima)

現在時刻: 9/26 10:49 JST (9/26 01:49 UTC) 以下の時間は現地時間です。

過去48時間のMETAR気象情報
時間 風向 風速(m/s) 視程 気温(℃) 湿度(%) 気圧(hPa) 天気現象
26 10:22 8 10km以上 28 89 1004 弱いしゅう雨
26 10:11 北北東 8 8000m 27 89 1004 強いしゅう雨
26 10:00 北北東 7 10km以上 28 89 1004 周辺でしゅう雨
26 09:00 9 10km以上 27 89 1004 弱いしゅう雨
26 08:00 7 10km以上 27 94 1003
25 18:00 北北東 11 10km以上 28 89 1003 周辺でしゅう雨
25 17:12 北北東 12 10km以上 28 89 1003 弱いしゅう雨
25 17:00 北北東 12 10km以上 27 94 1003 弱いしゅう雨
25 16:00 北北東 10 10km以上 27 89 1003 弱いしゅう雨
25 15:29 北北東 9 10km以上 26 94 1003 弱いしゅう雨
25 15:14 北北東 12 10km以上 26 89 1003 弱いしゅう雨
25 15:00 北北東 10 10km以上 28 84 1003
25 14:00 北北東 12 10km以上 26 94 1004 弱いしゅう雨
25 13:00 北北東 10 10km以上 30 79 1004 弱いしゅう雨
25 12:12 北北東 9 10km以上 29 79 1005 弱いしゅう雨
25 12:00 北北東 9 10km以上 29 79 1005 弱いしゅう雨
25 11:35 北北東 11 10km以上 30 75 1005
25 11:00 北北東 12 10km以上 30 75 1006
25 10:00 北北東 11 10km以上 29 79 1006
25 09:17 北北東 12 10km以上 29 74 1006
25 09:00 北北東 12 10km以上 29 74 1006
25 08:11 北北東 12 10km以上 28 84 1005 弱いしゅう雨
25 08:00 北北東 11 10km以上 28 84 1005 弱いしゅう雨
25 07:08 北北東 10 10km以上 28 79 1005
25 07:00 北北東 12 10km以上 28 79 1005
25 06:00 北北東 11 10km以上 28 84 1005
24 20:00 北東 9 10km以上 28 84 1006
24 19:00 北東 10 10km以上 28 84 1006 周辺でしゅう雨
24 18:00 北北東 8 10km以上 27 94 1006 周辺でしゅう雨
24 17:00 北東 10 10km以上 28 84 1006 周辺でしゅう雨
24 16:17 北北東 9 10km以上 29 79 1006
24 16:00 北北東 10 10km以上 29 79 1006
24 15:00 北北東 9 10km以上 30 75 1006
24 14:00 北北東 8 10km以上 29 79 1007
24 13:00 北北東 9 10km以上 28 89 1008 周辺でしゅう雨
24 12:00 北東 9 10km以上 29 79 1009 弱いしゅう雨
24 11:00 北東 7 10km以上 29 79 1009 弱いしゅう雨
ROIG 260122Z 01015KT 9999 R04/0750VP1800U -SHRA SCT016 FEW020TCU BKN/// 28/26 Q1004 RMK 3CU016 1TCU020 A2966 TCU 10KM S-SW MOV SW
ROIG 260111Z 02016G30KT 8000 R04/0600VP1800D +SHRA SCT009 BKN016 FEW020TCU 27/25 Q1004 RMK 3CU009 6CU016 2TCU020 A2966 TCU OHD MOV SW RI++
ROIG 260100Z 02013G24KT 9999 VCSH BKN016 28/26 Q1004
ROIG 260000Z 01017KT 9999 -SHRA BKN016 FEW020TCU 27/25 Q1004
ROIG 252300Z 01013KT 9999 SCT011 BKN/// 27/26 Q1003
ROIG 250900Z 03021KT 9999 VCSH FEW015 SCT020 BKN030 28/26 Q1003
ROIG 250812Z 03023G33KT 9999 -SHRA FEW015 SCT020 BKN050 28/26 Q1003 RMK 1CU015 3CU020 5SC050 A2963
ROIG 250800Z 02023KT 9999 -SHRA FEW012 SCT018 FEW025TCU BKN050 27/26 Q1003
ROIG 250700Z 02020G30KT 9999 -SHRA FEW011 SCT020 BKN030 27/25 Q1003
ROIG 250629Z 02017G27KT 9999 -SHRA FEW010 SCT020 FEW025TCU BKN050 26/25 Q1003 RMK 1CU010 3CU020 1TCU025 5SC050 A2963 TCU 10KM W MOV SW
ROIG 250614Z 03024G36KT 9999 R04/0900VP1800D -SHRA FEW015 SCT020 FEW025TCU BKN030 26/24 Q1003 RMK 1CU015 3CU020 1TCU025 5CU030 A2964 TCU 10KM N MOV SW
ROIG 250600Z 03019KT 9999 FEW015 SCT020 BKN030 28/25 Q1003
ROIG 250500Z 02023G33KT 9999 -SHRA FEW010 SCT030 BKN050 26/25 Q1004
ROIG 250400Z 03020G31KT 9999 -SHRA FEW019 FEW025TCU SCT030 30/26 Q1004
ROIG 250312Z 02018G28KT 9999 -SHRA SCT021 FEW025TCU BKN030 29/25 Q1005 RMK 3CU021 1TCU025 5CU030 A2969 TCU 10KM S MOV SW
ROIG 250300Z 02017KT 9999 -SHRA SCT021 FEW025TCU BKN030 29/25 Q1005
ROIG 250235Z 02021G31KT 9999 SCT021 FEW025TCU 30/25 Q1005 RMK 3CU021 1TCU025 A2970 TCU 10KM E MOV SW
ROIG 250200Z 03024KT 9999 SCT021 30/25 Q1006
ROIG 250100Z 02021KT 9999 FEW022 SCT030 BKN050 29/25 Q1006
ROIG 250017Z 02023G34KT 9999 SCT020 BKN040 29/24 Q1006 RMK 3CU020 5SC040 A2971
ROIG 250000Z 03023KT 9999 FEW020 SCT030 29/24 Q1006
ROIG 242311Z 02023G33KT 9999 -SHRA SCT020 SCT035 28/25 Q1005 RMK 3CU020 4CU035 A2970
ROIG 242300Z 03022KT 9999 -SHRA SCT020 BKN028 28/25 Q1005
ROIG 242208Z 03020G30KT 9999 FEW020 SCT025 28/24 Q1005 RMK 2CU020 4CU025 A2968
ROIG 242200Z 03024KT 9999 FEW020 SCT025 28/24 Q1005
ROIG 242100Z 03022KT 9999 SCT021 SCT030 28/25 Q1005
ROIG 241100Z 04018KT 9999 SCT017 28/25 Q1006
ROIG 241000Z 04019KT 9999 VCSH SCT015 28/25 Q1006
ROIG 240900Z 02015KT 9999 VCSH SCT015 BKN/// 27/26 Q1006
ROIG 240800Z 04020KT 9999 VCSH FEW013 FEW020TCU SCT100 BKN/// 28/25 Q1006
ROIG 240717Z 03017G27KT 9999 FEW015 SCT/// 29/25 Q1006 RMK 1CU015 A2972
ROIG 240700Z 03020KT 9999 FEW015 SCT/// 29/25 Q1006
ROIG 240600Z 02017KT 9999 FEW015 BKN/// 30/25 Q1006
ROIG 240500Z 03016KT 9999 FEW015 BKN/// 29/25 Q1007
ROIG 240400Z 03018KT 9999 VCSH FEW011 SCT150 BKN/// 28/26 Q1008
ROIG 240300Z 04018KT 9999 -SHRA SCT012 BKN030 29/25 Q1009
ROIG 240200Z 04014KT 9999 -SHRA FEW012 BKN019 29/25 Q1009